createdAt,value
2018-09-20T00:00:38.421Z,17.57
2018-09-20T00:01:39.557Z,17.54
2018-09-20T00:02:38.562Z,17.52
2018-09-20T00:03:38.871Z,17.51
2018-09-20T00:04:39.226Z,17.49
2018-09-20T00:05:39.294Z,17.52
2018-09-20T00:06:39.241Z,17.52
2018-09-20T00:07:39.420Z,17.54
2018-09-20T00:08:38.695Z,17.57
2018-09-20T00:09:38.722Z,17.57
2018-09-20T00:10:38.907Z,17.56
2018-09-20T00:11:39.306Z,17.56
2018-09-20T00:12:39.452Z,17.57
2018-09-20T00:13:38.727Z,17.57
2018-09-20T00:14:59.688Z,17.57
2018-09-20T00:15:59.954Z,17.56
2018-09-20T00:17:00.162Z,17.52
2018-09-20T00:18:00.394Z,17.52
2018-09-20T00:19:00.521Z,17.52
2018-09-20T00:19:59.592Z,17.51
2018-09-20T00:20:59.886Z,17.49
2018-09-20T00:22:00.174Z,17.49
2018-09-20T00:23:00.398Z,17.49
2018-09-20T00:24:00.390Z,17.46
2018-09-20T00:25:00.833Z,17.45
2018-09-20T00:26:00.027Z,17.44
2018-09-20T00:27:00.326Z,17.44
2018-09-20T00:28:00.428Z,17.44
2018-09-20T00:29:00.504Z,17.44
2018-09-20T00:29:59.772Z,17.45
2018-09-20T00:30:59.977Z,17.42
2018-09-20T00:32:00.236Z,17.42
2018-09-20T00:33:00.473Z,17.41
2018-09-20T00:33:59.642Z,17.39
2018-09-20T00:35:00.010Z,17.48
2018-09-20T00:36:00.052Z,17.49
2018-09-20T00:37:00.463Z,17.49
2018-09-20T00:37:59.699Z,17.51
2018-09-20T00:39:00.138Z,17.49
2018-09-20T00:40:00.361Z,17.45
2018-09-20T00:41:00.396Z,17.45
2018-09-20T00:42:00.533Z,17.44
2018-09-20T00:42:59.680Z,17.42
2018-09-20T00:43:59.625Z,17.42
2018-09-20T00:44:59.893Z,17.42
2018-09-20T00:46:00.279Z,17.42
2018-09-20T00:47:00.306Z,17.41
2018-09-20T00:48:00.347Z,17.41
2018-09-20T00:49:00.474Z,17.41
2018-09-20T00:50:00.555Z,17.39
2018-09-20T00:50:59.593Z,17.38
2018-09-20T00:51:59.711Z,17.38
2018-09-20T00:52:59.959Z,17.39
2018-09-20T00:54:00.260Z,17.38
2018-09-20T00:55:00.410Z,17.38
2018-09-20T00:56:00.576Z,17.38
2018-09-20T00:56:59.733Z,17.38
2018-09-20T00:57:59.811Z,17.39
2018-09-20T00:59:00.121Z,17.38
2018-09-20T01:00:00.257Z,17.34
2018-09-20T01:01:21.060Z,17.30
2018-09-20T01:02:21.153Z,17.29
2018-09-20T01:03:21.492Z,17.26
2018-09-20T01:04:21.683Z,17.24
2018-09-20T01:05:21.863Z,17.24
2018-09-20T01:06:22.131Z,17.24
2018-09-20T01:07:42.433Z,17.22
2018-09-20T01:08:42.472Z,17.22
2018-09-20T01:09:42.631Z,17.22
2018-09-20T01:10:42.862Z,17.20
2018-09-20T01:11:43.068Z,17.20
2018-09-20T01:12:43.331Z,17.23
2018-09-20T01:13:42.492Z,17.22
2018-09-20T01:14:42.561Z,17.23
2018-09-20T01:15:42.676Z,17.22
2018-09-20T01:17:03.562Z,17.19
2018-09-20T01:18:04.513Z,17.19
2018-09-20T01:19:04.526Z,17.15
2018-09-20T01:20:03.859Z,17.16
2018-09-20T01:21:04.005Z,17.15
2018-09-20T01:22:04.015Z,17.15
2018-09-20T01:23:04.139Z,17.19
2018-09-20T01:24:04.178Z,17.20
2018-09-20T01:25:04.284Z,17.20
2018-09-20T01:26:04.549Z,17.16
2018-09-20T01:27:05.148Z,17.16
2018-09-20T01:28:04.405Z,17.16
2018-09-20T01:29:04.692Z,17.14
2018-09-20T01:30:24.622Z,17.14
2018-09-20T01:31:26.029Z,17.09
2018-09-20T01:32:25.156Z,17.06
2018-09-20T01:33:25.983Z,17.08
2018-09-20T01:34:25.212Z,17.08
2018-09-20T01:35:25.484Z,17.08
2018-09-20T01:36:25.743Z,17.06
2018-09-20T01:37:24.784Z,17.08
2018-09-20T01:38:24.902Z,17.06
2018-09-20T01:39:25.148Z,17.06
2018-09-20T01:40:46.311Z,17.08
2018-09-20T01:41:46.275Z,17.08
2018-09-20T01:42:46.179Z,17.12
2018-09-20T01:44:07.195Z,17.14
2018-09-20T01:45:08.108Z,17.15
2018-09-20T01:46:28.153Z,17.14
2018-09-20T01:47:28.452Z,17.14
2018-09-20T01:48:49.790Z,17.14
2018-09-20T01:50:11.148Z,17.12
2018-09-20T01:51:53.587Z,17.12
2018-09-20T01:52:53.914Z,17.12
2018-09-20T01:53:53.864Z,17.11
2018-09-20T01:54:54.210Z,17.09
2018-09-20T01:55:54.270Z,17.08
2018-09-20T01:56:54.311Z,17.08
2018-09-20T01:57:54.410Z,17.05
2018-09-20T01:58:54.383Z,17.06
2018-09-20T01:59:54.573Z,17.09
2018-09-20T02:00:53.873Z,17.08
2018-09-20T02:01:53.776Z,17.05
2018-09-20T02:02:53.663Z,17.04
2018-09-20T02:03:54.045Z,17.01
2018-09-20T02:04:54.162Z,16.97
2018-09-20T02:05:54.312Z,16.97
2018-09-20T02:06:54.521Z,16.96
2018-09-20T02:07:53.666Z,16.97
2018-09-20T02:08:53.749Z,17.01
2018-09-20T02:09:53.822Z,17.02
2018-09-20T02:10:53.865Z,16.99
2018-09-20T02:11:54.131Z,16.97
2018-09-20T02:12:54.289Z,16.97
2018-09-20T02:13:54.579Z,16.94
2018-09-20T02:14:54.443Z,16.96
2018-09-20T02:15:54.630Z,16.99
2018-09-20T02:16:53.786Z,17.01
2018-09-20T02:17:54.038Z,17.02
2018-09-20T02:18:54.141Z,17.04
2018-09-20T02:19:54.208Z,17.02
2018-09-20T02:20:54.157Z,17.04
2018-09-20T02:21:54.133Z,17.04
2018-09-20T02:22:54.238Z,17.02
2018-09-20T02:23:54.463Z,16.99
2018-09-20T02:24:53.459Z,16.99
2018-09-20T02:25:54.545Z,16.96
2018-09-20T02:26:53.795Z,16.94
2018-09-20T02:27:53.901Z,16.93
2018-09-20T02:29:14.972Z,16.94
2018-09-20T02:30:15.103Z,16.97
2018-09-20T02:31:14.945Z,16.99
2018-09-20T02:32:15.266Z,16.97
2018-09-20T02:33:15.499Z,16.97
2018-09-20T02:34:15.361Z,16.99
2018-09-20T02:35:15.354Z,17.01
2018-09-20T02:36:15.749Z,17.02
2018-09-20T02:37:57.304Z,17.01
2018-09-20T02:38:57.460Z,16.99
2018-09-20T02:39:57.456Z,16.99
2018-09-20T02:40:57.527Z,16.96
2018-09-20T02:41:57.501Z,16.96
2018-09-20T02:43:18.488Z,16.93
2018-09-20T02:44:19.431Z,16.90
2018-09-20T02:45:18.845Z,16.91
2018-09-20T02:46:19.134Z,16.91
2018-09-20T02:47:19.006Z,16.90
2018-09-20T02:48:18.897Z,16.90
2018-09-20T02:49:18.991Z,16.93
2018-09-20T02:50:19.113Z,16.93
2018-09-20T02:51:19.207Z,16.91
2018-09-20T02:52:19.163Z,16.90
2018-09-20T02:53:19.196Z,16.93
2018-09-20T02:54:19.322Z,16.93
2018-09-20T02:55:18.779Z,16.91
2018-09-20T02:56:18.996Z,16.93
2018-09-20T02:57:18.968Z,16.91
2018-09-20T02:58:19.158Z,16.90
2018-09-20T02:59:18.440Z,16.91
2018-09-20T03:00:39.535Z,16.93
2018-09-20T03:01:39.794Z,16.90
2018-09-20T03:02:39.904Z,16.94
2018-09-20T03:03:40.136Z,16.93
2018-09-20T03:05:00.336Z,16.97
2018-09-20T03:06:00.346Z,16.96
2018-09-20T03:07:00.485Z,16.97
2018-09-20T03:08:00.393Z,16.97
2018-09-20T03:09:00.679Z,16.97
2018-09-20T03:10:00.966Z,16.97
2018-09-20T03:11:00.863Z,16.97
2018-09-20T03:12:00.883Z,16.97
2018-09-20T03:13:01.092Z,16.96
2018-09-20T03:14:00.188Z,16.94
2018-09-20T03:15:00.253Z,16.94
2018-09-20T03:16:00.349Z,16.94
2018-09-20T03:17:00.592Z,16.91
2018-09-20T03:18:21.719Z,16.90
2018-09-20T03:19:22.003Z,16.87
2018-09-20T03:21:03.972Z,16.84
2018-09-20T03:22:24.539Z,16.87
2018-09-20T03:23:25.404Z,16.83
2018-09-20T03:24:25.548Z,16.81
2018-09-20T03:25:24.655Z,16.79
2018-09-20T03:26:24.839Z,16.78
2018-09-20T03:27:24.837Z,16.78
2018-09-20T03:28:45.539Z,16.75
2018-09-20T03:29:45.900Z,16.76
2018-09-20T03:30:46.388Z,16.78
2018-09-20T03:31:46.508Z,16.76
2018-09-20T03:32:47.266Z,16.76
2018-09-20T03:33:46.215Z,16.75
2018-09-20T03:34:46.900Z,16.72
2018-09-20T03:35:46.232Z,16.72
2018-09-20T03:36:46.441Z,16.72
2018-09-20T03:37:46.273Z,16.68
2018-09-20T03:38:46.402Z,16.72
2018-09-20T03:39:46.550Z,16.71
2018-09-20T03:41:06.496Z,16.71
2018-09-20T03:42:06.527Z,16.68
2018-09-20T03:43:06.456Z,16.65
2018-09-20T03:44:06.828Z,16.64
2018-09-20T03:45:27.889Z,16.65
2018-09-20T03:46:48.576Z,16.64
2018-09-20T03:47:48.705Z,16.61
2018-09-20T03:48:49.000Z,16.64
2018-09-20T03:50:30.643Z,16.61
2018-09-20T03:51:31.722Z,16.60
2018-09-20T03:52:30.965Z,16.58
2018-09-20T03:53:31.024Z,16.61
2018-09-20T03:54:31.074Z,16.61
2018-09-20T03:55:31.228Z,16.60
2018-09-20T03:56:31.334Z,16.60
2018-09-20T03:57:31.388Z,16.58
2018-09-20T03:58:32.619Z,16.57
2018-09-20T03:59:31.645Z,16.57
2018-09-20T04:00:30.971Z,16.56
2018-09-20T04:01:30.949Z,16.54
2018-09-20T04:02:31.108Z,16.51
2018-09-20T04:03:31.202Z,16.53
2018-09-20T04:04:31.159Z,16.53
2018-09-20T04:05:31.528Z,16.53
2018-09-20T04:06:31.663Z,16.53
2018-09-20T04:07:30.564Z,16.53
2018-09-20T04:08:31.527Z,16.50
2018-09-20T04:09:52.649Z,16.49
2018-09-20T04:10:52.690Z,16.46
2018-09-20T04:12:13.583Z,16.43
2018-09-20T04:13:13.967Z,16.43
2018-09-20T04:14:13.997Z,16.41
2018-09-20T04:15:14.333Z,16.38
2018-09-20T04:16:14.343Z,16.39
2018-09-20T04:17:14.494Z,16.38
2018-09-20T04:18:14.568Z,16.38
2018-09-20T04:19:13.773Z,16.39
2018-09-20T04:20:34.871Z,16.36
2018-09-20T04:21:35.693Z,16.36
2018-09-20T04:22:34.850Z,16.39
2018-09-20T04:23:35.242Z,16.41
2018-09-20T04:24:35.500Z,16.43
2018-09-20T04:25:35.401Z,16.46
2018-09-20T04:26:35.603Z,16.42
2018-09-20T04:27:35.555Z,16.41
2018-09-20T04:28:34.751Z,16.36
2018-09-20T04:29:34.786Z,16.36
2018-09-20T04:30:56.011Z,16.38
2018-09-20T04:31:56.023Z,16.35
2018-09-20T04:32:56.557Z,16.33
2018-09-20T04:33:56.877Z,16.32
2018-09-20T04:34:57.000Z,16.29
2018-09-20T04:35:56.056Z,16.28
2018-09-20T04:36:56.392Z,16.29
2018-09-20T04:38:17.704Z,16.29
2018-09-20T04:39:38.652Z,16.28
2018-09-20T04:40:38.722Z,16.28
2018-09-20T04:41:38.801Z,16.26
2018-09-20T04:42:38.897Z,16.26
2018-09-20T04:43:39.067Z,16.21
2018-09-20T04:44:39.200Z,16.17
2018-09-20T04:45:39.555Z,16.16
2018-09-20T04:46:38.538Z,16.20
2018-09-20T04:47:38.831Z,16.23
2018-09-20T04:48:39.000Z,16.23
2018-09-20T04:49:39.047Z,16.20
2018-09-20T04:50:39.527Z,16.24
2018-09-20T04:51:38.736Z,16.26
2018-09-20T04:52:39.199Z,16.26
2018-09-20T04:53:39.309Z,16.26
2018-09-20T04:54:39.457Z,16.24
2018-09-20T04:55:39.416Z,16.24
2018-09-20T04:56:38.568Z,16.21
2018-09-20T04:57:38.831Z,16.21
2018-09-20T04:58:39.190Z,16.20
2018-09-20T04:59:41.700Z,16.21
2018-09-20T05:01:00.638Z,16.17
2018-09-20T05:02:23.594Z,16.20
2018-09-20T05:03:23.287Z,16.20
2018-09-20T05:04:25.333Z,16.17
2018-09-20T05:05:26.201Z,16.15
2018-09-20T05:06:34.247Z,16.16
2018-09-20T05:07:23.420Z,16.15
2018-09-20T05:08:23.750Z,16.13
2018-09-20T05:09:23.637Z,16.13
2018-09-20T05:10:46.838Z,16.15
2018-09-20T05:11:47.073Z,16.13
2018-09-20T05:12:47.662Z,16.15
2018-09-20T05:13:47.195Z,16.17
2018-09-20T05:14:47.692Z,16.23
2018-09-20T05:15:47.437Z,16.26
2018-09-20T05:16:46.987Z,16.28
2018-09-20T05:17:47.313Z,16.28
2018-09-20T05:18:46.613Z,16.24
2018-09-20T05:19:47.044Z,16.26
2018-09-20T05:21:09.191Z,16.23
2018-09-20T05:22:09.369Z,16.24
2018-09-20T05:23:09.716Z,16.23
2018-09-20T05:24:09.127Z,16.24
2018-09-20T05:25:30.375Z,16.28
2018-09-20T05:26:30.702Z,16.29
2018-09-20T05:27:30.850Z,16.32
2018-09-20T05:28:31.078Z,16.33
2018-09-20T05:29:31.219Z,16.36
2018-09-20T05:30:30.411Z,16.39
2018-09-20T05:31:31.272Z,16.42
2018-09-20T05:32:30.888Z,16.42
2018-09-20T05:33:31.256Z,16.42
2018-09-20T05:34:30.853Z,16.42
2018-09-20T05:35:31.795Z,16.42
2018-09-20T05:36:30.829Z,16.42
2018-09-20T05:37:52.882Z,16.42
2018-09-20T05:38:53.268Z,16.41
2018-09-20T05:39:53.617Z,16.41
2018-09-20T05:40:53.046Z,16.43
2018-09-20T05:41:53.318Z,16.46
2018-09-20T05:42:53.501Z,16.49
2018-09-20T05:43:53.781Z,16.49
2018-09-20T05:44:53.237Z,16.47
2018-09-20T05:45:53.665Z,16.49
2018-09-20T05:46:52.954Z,16.51
2018-09-20T05:47:53.416Z,16.53
2018-09-20T05:48:53.562Z,16.56
2018-09-20T05:49:52.973Z,16.57
2018-09-20T05:50:53.059Z,16.60
2018-09-20T05:52:14.423Z,16.64
2018-09-20T05:53:14.587Z,16.66
2018-09-20T05:54:14.762Z,16.68
2018-09-20T05:55:35.945Z,16.71
2018-09-20T05:56:36.122Z,16.74
2018-09-20T05:57:37.638Z,16.76
2018-09-20T05:58:35.998Z,16.81
2018-09-20T05:59:35.872Z,16.83
2018-09-20T06:00:36.716Z,16.87
2018-09-20T06:01:35.915Z,16.89
2018-09-20T06:02:57.616Z,16.90
2018-09-20T06:03:57.889Z,16.91
2018-09-20T06:04:58.366Z,16.93
2018-09-20T06:05:58.607Z,16.93
2018-09-20T06:06:57.752Z,16.96
2018-09-20T06:07:58.278Z,17.01
2018-09-20T06:08:57.727Z,17.01
2018-09-20T06:09:58.092Z,17.02
2018-09-20T06:10:58.363Z,17.04
2018-09-20T06:11:58.163Z,17.05
2018-09-20T06:12:57.472Z,17.06
2018-09-20T06:14:18.812Z,17.09
2018-09-20T06:15:19.106Z,17.12
2018-09-20T06:16:19.376Z,17.14
2018-09-20T06:17:19.717Z,17.16
2018-09-20T06:18:19.095Z,17.20
2018-09-20T06:19:40.149Z,17.33
2018-09-20T06:20:40.484Z,17.48
2018-09-20T06:22:01.597Z,17.56
2018-09-20T06:23:02.052Z,17.71
2018-09-20T06:24:02.654Z,17.89
2018-09-20T06:25:23.018Z,18.15
2018-09-20T06:26:23.070Z,18.33
2018-09-20T06:27:23.366Z,18.49
2018-09-20T06:28:23.830Z,18.59
2018-09-20T06:29:23.366Z,18.65
2018-09-20T06:30:23.661Z,18.78
2018-09-20T06:31:22.966Z,18.84
2018-09-20T06:32:23.202Z,18.93
2018-09-20T06:33:23.441Z,18.98
2018-09-20T06:34:23.723Z,19.02
2018-09-20T06:35:22.907Z,18.99
2018-09-20T06:36:23.086Z,19.04
2018-09-20T06:37:23.386Z,19.27
2018-09-20T06:38:23.868Z,19.56
2018-09-20T06:39:23.396Z,19.86
2018-09-20T06:41:10.179Z,19.86
2018-09-20T06:42:05.558Z,19.84
2018-09-20T06:43:05.881Z,20.09
2018-09-20T06:44:06.474Z,20.19
2018-09-20T06:45:05.973Z,20.22
2018-09-20T06:46:06.459Z,20.25
2018-09-20T06:47:05.913Z,20.55
2018-09-20T06:48:06.339Z,20.81
2018-09-20T06:49:05.704Z,20.75
2018-09-20T06:50:05.907Z,20.80
2018-09-20T06:51:06.272Z,21.07
2018-09-20T06:52:26.959Z,21.48
2018-09-20T06:53:27.412Z,21.66
2018-09-20T06:54:27.885Z,21.77
2018-09-20T06:55:27.349Z,21.91
2018-09-20T06:56:27.612Z,21.95
2018-09-20T06:57:27.862Z,21.89
2018-09-20T06:58:27.441Z,21.98
2018-09-20T06:59:49.215Z,22.20
2018-09-20T07:00:49.741Z,22.32
2018-09-20T07:01:50.124Z,22.55
2018-09-20T07:02:49.546Z,22.87
2018-09-20T07:03:50.068Z,22.94
2018-09-20T07:04:49.404Z,23.08
2018-09-20T07:05:49.842Z,23.15
2018-09-20T07:07:11.326Z,23.10
2018-09-20T07:08:11.889Z,23.13
2018-09-20T07:09:32.443Z,23.28
2018-09-20T07:10:32.777Z,23.37
2018-09-20T07:11:33.083Z,23.43
2018-09-20T07:12:32.354Z,23.25
2018-09-20T07:13:32.635Z,23.10
2018-09-20T07:14:33.239Z,23.20
2018-09-20T07:15:32.617Z,23.36
2018-09-20T07:16:32.918Z,23.55
2018-09-20T07:17:32.351Z,23.63
2018-09-20T07:18:32.652Z,23.66
2018-09-20T07:19:32.973Z,23.59
2018-09-20T07:20:32.210Z,23.73
2018-09-20T07:21:32.444Z,23.93
2018-09-20T07:22:32.816Z,24.06
2018-09-20T07:23:32.112Z,24.08
2018-09-20T07:24:32.556Z,24.03
2018-09-20T07:25:32.797Z,24.18
2018-09-20T07:26:31.967Z,24.29
2018-09-20T07:27:32.303Z,24.40
2018-09-20T07:28:32.799Z,24.32
2018-09-20T07:29:32.125Z,24.32
2018-09-20T07:30:32.549Z,24.24
2018-09-20T07:31:33.164Z,24.35
2018-09-20T07:32:32.621Z,24.47
2018-09-20T07:33:33.136Z,24.55
2018-09-20T07:34:53.959Z,24.53
2018-09-20T07:35:54.089Z,24.58
2018-09-20T07:36:54.461Z,24.73
2018-09-20T07:37:53.942Z,25.03
2018-09-20T07:38:54.178Z,25.26
2018-09-20T07:39:54.461Z,25.33
2018-09-20T07:40:53.819Z,25.35
2018-09-20T07:41:53.974Z,25.35
2018-09-20T07:42:54.228Z,25.44
2018-09-20T07:43:54.759Z,25.44
2018-09-20T07:44:53.939Z,25.33
2018-09-20T07:45:54.517Z,25.41
2018-09-20T07:46:53.920Z,25.51
2018-09-20T07:47:54.170Z,25.73
2018-09-20T07:48:54.569Z,25.95
2018-09-20T07:49:53.930Z,26.03
2018-09-20T07:50:54.481Z,25.98
2018-09-20T07:51:53.865Z,25.95
2018-09-20T07:52:54.352Z,25.69
2018-09-20T07:53:53.989Z,25.65
2018-09-20T07:54:54.657Z,25.50
2018-09-20T07:56:38.122Z,25.36
2018-09-20T07:57:38.640Z,25.33
2018-09-20T07:58:38.041Z,25.33
2018-09-20T07:59:38.694Z,25.32
2018-09-20T08:00:38.332Z,25.07
2018-09-20T08:01:38.768Z,24.78
2018-09-20T08:02:38.107Z,24.55
2018-09-20T08:03:38.697Z,24.50
2018-09-20T08:04:38.970Z,24.73
2018-09-20T08:05:38.514Z,25.03
2018-09-20T08:06:59.077Z,25.46
2018-09-20T08:07:59.492Z,25.80
2018-09-20T08:08:59.834Z,26.06
2018-09-20T08:09:59.382Z,26.10
2018-09-20T08:10:59.958Z,26.18
2018-09-20T08:11:59.269Z,26.07
2018-09-20T08:12:59.752Z,26.13
2018-09-20T08:13:59.335Z,26.00
2018-09-20T08:14:59.685Z,26.03
2018-09-20T08:16:00.036Z,25.96
2018-09-20T08:16:59.306Z,25.93
2018-09-20T08:17:59.611Z,26.06
2018-09-20T08:18:59.932Z,26.23
2018-09-20T08:19:59.347Z,26.16
2018-09-20T08:20:59.859Z,26.07
2018-09-20T08:21:59.139Z,26.16
2018-09-20T08:23:00.108Z,26.33
2018-09-20T08:23:59.406Z,26.47
2018-09-20T08:24:59.400Z,26.47
2018-09-20T08:26:21.344Z,26.62
2018-09-20T08:27:21.675Z,26.43
2018-09-20T08:28:21.910Z,26.26
2018-09-20T08:29:22.139Z,26.48
2018-09-20T08:30:21.429Z,26.60
2018-09-20T08:31:22.595Z,26.73
2018-09-20T08:32:42.673Z,26.65
2018-09-20T08:33:42.981Z,26.37
2018-09-20T08:34:43.182Z,26.18
2018-09-20T08:35:43.538Z,26.13
2018-09-20T08:36:43.088Z,25.90
2018-09-20T08:38:05.229Z,25.48
2018-09-20T08:39:05.531Z,25.35
2018-09-20T08:40:27.024Z,25.25
2018-09-20T08:41:27.252Z,25.17
2018-09-20T08:42:27.699Z,25.06
2018-09-20T08:43:27.130Z,24.88
2018-09-20T08:44:48.594Z,24.53
2018-09-20T08:45:49.130Z,24.48
2018-09-20T08:46:49.344Z,24.50
2018-09-20T08:47:48.787Z,24.28
2018-09-20T08:48:49.064Z,24.13
2018-09-20T08:50:32.305Z,23.95
2018-09-20T08:51:32.564Z,23.91
2018-09-20T08:52:32.897Z,23.84
2018-09-20T08:53:33.327Z,23.77
2018-09-20T08:54:32.695Z,23.68
2018-09-20T08:55:53.987Z,23.66
2018-09-20T08:56:54.454Z,23.58
2018-09-20T08:57:54.914Z,23.43
2018-09-20T08:58:54.516Z,23.28
2018-09-20T08:59:54.814Z,23.27
2018-09-20T09:00:54.117Z,23.71
2018-09-20T09:01:54.329Z,24.36
2018-09-20T09:02:54.567Z,24.88
2018-09-20T09:03:55.003Z,24.84
2018-09-20T09:04:54.346Z,24.63
2018-09-20T09:06:15.926Z,25.26
2018-09-20T09:07:16.318Z,25.85
2018-09-20T09:08:15.665Z,26.52
2018-09-20T09:09:16.841Z,26.99
2018-09-20T09:10:16.157Z,27.15
2018-09-20T09:11:16.717Z,27.37
2018-09-20T09:12:15.821Z,27.65
2018-09-20T09:13:16.144Z,27.90
2018-09-20T09:14:16.648Z,27.59
2018-09-20T09:15:15.999Z,27.36
2018-09-20T09:16:16.382Z,27.12
2018-09-20T09:17:37.952Z,26.85
2018-09-20T09:18:38.391Z,26.77
2018-09-20T09:19:39.576Z,26.66
2018-09-20T09:20:37.856Z,26.75
2018-09-20T09:21:37.930Z,27.14
2018-09-20T09:22:38.217Z,27.75
2018-09-20T09:23:38.582Z,28.01
2018-09-20T09:24:37.993Z,28.52
2018-09-20T09:25:38.462Z,29.12
2018-09-20T09:26:39.637Z,29.69
2018-09-20T09:27:38.585Z,29.94
2018-09-20T09:28:38.005Z,29.57
2018-09-20T09:29:38.393Z,29.53
2018-09-20T09:30:38.953Z,29.61
2018-09-20T09:31:38.255Z,29.65
2018-09-20T09:32:39.187Z,29.90
2018-09-20T09:33:38.641Z,29.75
2018-09-20T09:34:38.011Z,29.90
2018-09-20T09:35:38.431Z,29.90
2018-09-20T09:36:38.748Z,29.93
2018-09-20T09:38:20.090Z,30.18
2018-09-20T09:39:20.100Z,30.10
2018-09-20T09:40:41.459Z,30.43
2018-09-20T09:41:41.825Z,30.80
2018-09-20T09:42:42.131Z,30.94
2018-09-20T09:43:41.522Z,31.05
2018-09-20T09:44:41.897Z,31.14
2018-09-20T09:45:42.044Z,31.12
2018-09-20T09:46:42.084Z,31.14
2018-09-20T09:47:41.284Z,31.10
2018-09-20T09:48:46.908Z,30.63
2018-09-20T09:49:43.693Z,30.57
2018-09-20T09:50:42.415Z,30.55
2018-09-20T09:51:43.338Z,30.30
2018-09-20T09:52:42.809Z,30.18
2018-09-20T09:53:42.533Z,30.34
2018-09-20T09:54:42.391Z,30.34
2018-09-20T09:55:41.684Z,30.16
2018-09-20T09:56:42.125Z,30.44
2018-09-20T09:57:42.408Z,30.77
2018-09-20T09:58:42.276Z,30.85
2018-09-20T09:59:41.910Z,31.06
2018-09-20T10:00:42.492Z,31.31
2018-09-20T10:01:42.287Z,30.96
2018-09-20T10:02:42.163Z,30.69
2018-09-20T10:03:43.609Z,30.69
2018-09-20T10:05:04.178Z,30.54
2018-09-20T10:06:04.327Z,30.63
2018-09-20T10:07:04.120Z,30.55
2018-09-20T10:08:04.551Z,30.59
2018-09-20T10:09:04.125Z,30.19
2018-09-20T10:10:03.685Z,30.23
2018-09-20T10:11:03.973Z,30.24
2018-09-20T10:12:03.603Z,30.59
2018-09-20T10:13:04.192Z,31.00
2018-09-20T10:14:04.352Z,31.20
2018-09-20T10:15:03.707Z,31.34
2018-09-20T10:16:03.941Z,31.42
2018-09-20T10:17:25.960Z,31.07
2018-09-20T10:18:25.681Z,30.34
2018-09-20T10:19:26.023Z,30.09
2018-09-20T10:20:26.208Z,30.15
2018-09-20T10:21:25.889Z,30.12
2018-09-20T10:22:26.136Z,29.81
2018-09-20T10:23:47.613Z,29.32
2018-09-20T10:24:48.164Z,29.51
2018-09-20T10:25:47.536Z,29.54
2018-09-20T10:27:09.084Z,29.10
2018-09-20T10:28:10.021Z,29.17
2018-09-20T10:29:09.438Z,29.45
2018-09-20T10:30:09.913Z,29.90
2018-09-20T10:31:09.190Z,30.25
2018-09-20T10:32:32.033Z,30.37
2018-09-20T10:33:32.580Z,30.27
2018-09-20T10:34:32.680Z,30.06
2018-09-20T10:35:54.210Z,29.76
2018-09-20T10:36:55.269Z,29.76
2018-09-20T10:37:54.792Z,29.93
2018-09-20T10:38:55.268Z,30.28
2018-09-20T10:39:54.690Z,30.15
2018-09-20T10:40:54.958Z,30.02
2018-09-20T10:41:55.107Z,29.73
2018-09-20T10:42:54.524Z,29.39
2018-09-20T10:43:55.124Z,29.47
2018-09-20T10:44:54.506Z,29.05
2018-09-20T10:45:55.173Z,28.89
2018-09-20T10:47:15.450Z,28.51
2018-09-20T10:48:15.769Z,28.30
2018-09-20T10:49:37.199Z,28.60
2018-09-20T10:50:37.268Z,29.13
2018-09-20T10:51:58.815Z,30.08
2018-09-20T10:52:59.221Z,30.24
2018-09-20T10:53:59.613Z,30.78
2018-09-20T10:54:58.851Z,31.03
2018-09-20T10:55:59.295Z,31.15
2018-09-20T10:56:59.449Z,31.06
2018-09-20T10:57:58.797Z,31.12
2018-09-20T10:58:59.032Z,31.12
2018-09-20T11:00:21.027Z,30.88
2018-09-20T11:01:21.544Z,30.99
2018-09-20T11:02:43.034Z,31.07
2018-09-20T11:03:43.301Z,31.00
2018-09-20T11:04:43.732Z,30.85
2018-09-20T11:05:43.095Z,30.70
2018-09-20T11:06:44.383Z,30.37
2018-09-20T11:08:04.892Z,30.43
2018-09-20T11:09:05.066Z,30.48
2018-09-20T11:10:05.384Z,30.24
2018-09-20T11:11:05.926Z,29.88
2018-09-20T11:12:05.320Z,29.60
2018-09-20T11:13:05.954Z,29.57
2018-09-20T11:14:05.364Z,29.65
2018-09-20T11:15:04.938Z,29.68
2018-09-20T11:16:26.165Z,29.54
2018-09-20T11:17:26.482Z,29.13
2018-09-20T11:18:26.546Z,28.88
2018-09-20T11:19:26.692Z,28.84
2018-09-20T11:20:28.052Z,28.66
2018-09-20T11:21:47.596Z,28.59
2018-09-20T11:22:47.934Z,28.42
2018-09-20T11:23:47.815Z,28.38
2018-09-20T11:24:48.025Z,28.41
2018-09-20T11:25:48.219Z,28.37
2018-09-20T11:26:47.464Z,28.42
2018-09-20T11:28:08.832Z,28.39
2018-09-20T11:29:31.556Z,28.45
2018-09-20T11:30:31.321Z,28.63
2018-09-20T11:31:30.789Z,28.84
2018-09-20T11:32:30.119Z,29.02
2018-09-20T11:33:51.814Z,28.75
2018-09-20T11:34:51.913Z,28.48
2018-09-20T11:35:52.329Z,28.27
2018-09-20T11:36:53.152Z,28.05
2018-09-20T11:37:53.299Z,28.26
2018-09-20T11:38:52.537Z,28.42
2018-09-20T11:40:34.212Z,28.51
2018-09-20T11:41:56.002Z,28.94
2018-09-20T11:43:17.946Z,28.70
2018-09-20T11:44:18.372Z,28.67
2018-09-20T11:45:17.644Z,28.88
2018-09-20T11:46:18.137Z,29.13
2018-09-20T11:47:19.080Z,29.07
2018-09-20T11:48:18.631Z,28.97
2018-09-20T11:49:18.243Z,28.88
2018-09-20T11:50:18.598Z,28.93
2018-09-20T11:51:18.202Z,29.19
2018-09-20T11:52:18.476Z,29.49
2018-09-20T11:53:17.872Z,29.71
2018-09-20T11:54:18.204Z,29.56
2018-09-20T11:55:18.387Z,29.31
2018-09-20T11:56:18.834Z,29.16
2018-09-20T11:57:18.252Z,28.97
2018-09-20T11:58:17.717Z,28.93
2018-09-20T11:59:18.080Z,29.12
2018-09-20T12:00:18.493Z,29.61
2018-09-20T12:01:18.133Z,29.98
2018-09-20T12:02:19.300Z,30.21
2018-09-20T12:03:18.626Z,30.37
2018-09-20T12:04:40.249Z,30.55
2018-09-20T12:05:40.167Z,31.09
2018-09-20T12:07:00.833Z,31.66
2018-09-20T12:08:01.349Z,31.97
2018-09-20T12:09:01.657Z,32.23
2018-09-20T12:10:00.904Z,32.30
2018-09-20T12:11:22.685Z,32.38
2018-09-20T12:13:04.983Z,32.67
2018-09-20T12:14:05.940Z,32.43
2018-09-20T12:15:05.182Z,32.49
2018-09-20T12:16:05.743Z,32.37
2018-09-20T12:17:28.660Z,32.52
2018-09-20T12:18:28.224Z,32.48
2018-09-20T12:19:28.929Z,32.53
2018-09-20T12:20:28.341Z,32.73
2018-09-20T12:21:28.932Z,32.96
2018-09-20T12:22:28.528Z,32.93
2018-09-20T12:23:29.140Z,32.78
2018-09-20T12:24:28.456Z,32.87
2018-09-20T12:25:28.811Z,32.90
2018-09-20T12:26:28.476Z,32.86
2018-09-20T12:27:28.976Z,32.67
2018-09-20T12:28:28.508Z,32.51
2018-09-20T12:29:27.991Z,32.43
2018-09-20T12:30:28.494Z,32.74
2018-09-20T12:31:29.375Z,32.89
2018-09-20T12:32:28.596Z,33.09
2018-09-20T12:33:29.032Z,33.24
2018-09-20T12:34:28.500Z,33.40
2018-09-20T12:35:30.202Z,33.43
2018-09-20T12:36:28.656Z,33.39
2018-09-20T12:37:28.018Z,32.96
2018-09-20T12:38:28.511Z,32.95
2018-09-20T12:39:28.949Z,33.05
2018-09-20T12:40:28.362Z,33.01
2018-09-20T12:41:28.985Z,33.05
2018-09-20T12:42:28.410Z,33.05
2018-09-20T12:44:11.547Z,33.04
2018-09-20T12:45:12.014Z,32.56
2018-09-20T12:46:11.385Z,32.12
2018-09-20T12:47:11.747Z,31.87
2018-09-20T12:48:33.379Z,31.74
2018-09-20T12:49:33.877Z,31.80
2018-09-20T12:50:33.211Z,31.87
2018-09-20T12:51:33.600Z,32.00
2018-09-20T12:52:55.112Z,32.23
2018-09-20T12:53:56.670Z,32.18
2018-09-20T12:54:55.951Z,32.07
2018-09-20T12:55:55.457Z,32.03
2018-09-20T12:56:55.807Z,31.93
2018-09-20T12:58:17.452Z,31.90
2018-09-20T12:59:17.915Z,31.94
2018-09-20T13:00:18.288Z,31.93
2018-09-20T13:01:17.532Z,31.36
2018-09-20T13:02:18.124Z,31.20
2018-09-20T13:03:17.639Z,31.20
2018-09-20T13:04:17.869Z,31.00
2018-09-20T13:05:18.435Z,30.92
2018-09-20T13:06:19.217Z,30.55
2018-09-20T13:07:17.493Z,30.48
2018-09-20T13:08:17.772Z,30.53
2018-09-20T13:09:18.177Z,30.50
2018-09-20T13:10:17.481Z,30.65
2018-09-20T13:11:39.171Z,30.69
2018-09-20T13:12:39.597Z,30.77
2018-09-20T13:13:41.374Z,30.68
2018-09-20T13:14:40.001Z,30.59
2018-09-20T13:16:00.166Z,30.62
2018-09-20T13:17:00.327Z,30.66
2018-09-20T13:18:00.509Z,30.83
2018-09-20T13:19:01.115Z,30.96
2018-09-20T13:20:00.985Z,30.72
2018-09-20T13:21:01.192Z,30.15
2018-09-20T13:22:23.788Z,30.12
2018-09-20T13:23:24.963Z,30.15
2018-09-20T13:24:25.561Z,30.16
2018-09-20T13:26:06.988Z,29.91
2018-09-20T13:27:08.292Z,30.00
2018-09-20T13:28:07.626Z,29.86
2018-09-20T13:29:07.533Z,30.03
2018-09-20T13:30:07.190Z,30.21
2018-09-20T13:31:08.197Z,30.47